createdAt,value
2019-05-26T00:02:17.858Z,15.29
2019-05-26T00:04:49.735Z,15.28
2019-05-26T00:07:30.279Z,15.21
2019-05-26T00:09:54.801Z,15.14
2019-05-26T00:12:26.627Z,15.14
2019-05-26T00:14:58.351Z,15.13
2019-05-26T00:17:30.947Z,15.05
2019-05-26T00:20:02.845Z,15.12
2019-05-26T00:22:34.399Z,15.10
2019-05-26T00:25:08.323Z,15.11
2019-05-26T00:27:40.101Z,15.14
2019-05-26T00:30:12.286Z,15.22
2019-05-26T00:32:44.079Z,15.20
2019-05-26T00:35:16.469Z,15.20
2019-05-26T00:37:50.237Z,15.24
2019-05-26T00:40:21.149Z,15.23
2019-05-26T00:42:52.907Z,15.19
2019-05-26T00:45:24.906Z,15.18
2019-05-26T00:47:56.356Z,15.04
2019-05-26T00:50:28.134Z,15.00
2019-05-26T00:53:00.035Z,15.02
2019-05-26T00:55:31.788Z,15.07
2019-05-26T00:58:03.890Z,15.06
2019-05-26T01:00:41.398Z,15.10
2019-05-26T01:03:13.685Z,15.20
2019-05-26T01:05:45.459Z,15.19
2019-05-26T01:08:17.218Z,15.22
2019-05-26T01:10:48.909Z,15.23
2019-05-26T01:13:20.565Z,15.22
2019-05-26T01:15:52.363Z,15.19
2019-05-26T01:18:24.225Z,15.14
2019-05-26T01:20:55.897Z,15.12
2019-05-26T01:23:27.695Z,15.12
2019-05-26T01:25:59.673Z,15.19
2019-05-26T01:28:31.448Z,15.27
2019-05-26T01:31:03.534Z,15.26
2019-05-26T01:33:35.101Z,15.32
2019-05-26T01:36:06.865Z,15.35
2019-05-26T01:38:39.633Z,15.35
2019-05-26T01:41:11.153Z,15.53
2019-05-26T01:43:42.924Z,15.67
2019-05-26T01:46:15.013Z,15.72
2019-05-26T01:48:46.809Z,15.70
2019-05-26T01:51:18.562Z,15.77
2019-05-26T01:53:50.340Z,15.84
2019-05-26T01:56:22.201Z,15.84
2019-05-26T01:58:54.702Z,15.84
2019-05-26T02:01:26.182Z,15.84
2019-05-26T02:03:58.058Z,15.89
2019-05-26T02:06:29.938Z,16.02
2019-05-26T02:09:03.554Z,15.97
2019-05-26T02:11:35.025Z,15.98
2019-05-26T02:14:06.902Z,15.95
2019-05-26T02:16:38.679Z,15.95
2019-05-26T02:19:11.478Z,15.97
2019-05-26T02:21:43.261Z,15.99
2019-05-26T02:24:15.031Z,16.08
2019-05-26T02:26:46.795Z,16.23
2019-05-26T02:29:18.567Z,16.38
2019-05-26T02:31:50.448Z,16.50
2019-05-26T02:34:22.343Z,16.69
2019-05-26T02:36:54.108Z,16.89
2019-05-26T02:39:25.895Z,17.08
2019-05-26T02:41:57.676Z,17.33
2019-05-26T02:44:29.457Z,17.74
2019-05-26T02:47:01.332Z,17.97
2019-05-26T02:49:33.112Z,18.02
2019-05-26T02:52:05.407Z,17.93
2019-05-26T02:54:37.078Z,17.74
2019-05-26T02:57:08.931Z,17.50
2019-05-26T02:59:40.814Z,17.53
2019-05-26T03:02:12.610Z,17.37
2019-05-26T03:04:44.480Z,17.46
2019-05-26T03:07:18.507Z,17.74
2019-05-26T03:09:51.548Z,18.02
2019-05-26T03:12:24.495Z,18.61
2019-05-26T03:14:59.495Z,19.26
2019-05-26T03:17:33.266Z,19.91
2019-05-26T03:20:06.485Z,20.83
2019-05-26T03:22:40.824Z,20.55
2019-05-26T03:25:13.412Z,20.20
2019-05-26T03:27:44.786Z,19.85
2019-05-26T03:30:17.005Z,19.49
2019-05-26T03:32:48.774Z,19.29
2019-05-26T03:35:20.637Z,19.11
2019-05-26T03:37:52.408Z,18.80
2019-05-26T03:40:24.185Z,18.82
2019-05-26T03:42:56.164Z,18.68
2019-05-26T03:45:42.566Z,18.65
2019-05-26T03:48:14.351Z,18.71
2019-05-26T03:50:46.117Z,18.65
2019-05-26T03:53:17.772Z,18.71
2019-05-26T03:55:49.557Z,18.74
2019-05-26T03:58:21.345Z,18.79
2019-05-26T04:00:53.124Z,18.66
2019-05-26T04:03:24.897Z,18.57
2019-05-26T04:05:56.663Z,18.55
2019-05-26T04:08:28.354Z,18.53
2019-05-26T04:11:00.124Z,18.59
2019-05-26T04:13:31.903Z,18.53
2019-05-26T04:16:03.782Z,18.52
2019-05-26T04:18:35.558Z,18.51
2019-05-26T04:21:08.360Z,18.56
2019-05-26T04:23:40.117Z,18.65
2019-05-26T04:26:11.919Z,18.68
2019-05-26T04:28:43.583Z,18.77
2019-05-26T04:31:15.345Z,18.84
2019-05-26T04:33:47.127Z,18.95
2019-05-26T04:36:18.814Z,18.99
2019-05-26T04:38:50.572Z,19.07
2019-05-26T04:41:21.958Z,19.21
2019-05-26T04:43:53.739Z,19.32
2019-05-26T04:46:25.513Z,19.19
2019-05-26T04:48:57.295Z,19.23
2019-05-26T04:51:28.860Z,19.14
2019-05-26T04:54:00.633Z,19.18
2019-05-26T04:56:32.395Z,19.30
2019-05-26T04:59:04.598Z,19.56
2019-05-26T05:01:36.170Z,19.51
2019-05-26T05:04:07.950Z,19.57
2019-05-26T05:06:39.721Z,19.54
2019-05-26T05:09:11.500Z,19.55
2019-05-26T05:11:43.161Z,19.50
2019-05-26T05:14:14.949Z,19.58
2019-05-26T05:16:46.724Z,19.75
2019-05-26T05:19:18.487Z,19.50
2019-05-26T05:21:51.305Z,19.62
2019-05-26T05:24:22.979Z,19.66
2019-05-26T05:26:54.753Z,19.90
2019-05-26T05:29:26.409Z,20.17
2019-05-26T05:31:58.192Z,20.50
2019-05-26T05:34:29.980Z,20.57
2019-05-26T05:37:07.546Z,20.82
2019-05-26T05:39:44.459Z,20.80
2019-05-26T05:42:16.254Z,20.86
2019-05-26T05:44:48.015Z,21.08
2019-05-26T05:47:19.709Z,21.50
2019-05-26T05:49:51.380Z,21.84
2019-05-26T05:52:23.154Z,21.76
2019-05-26T05:54:54.813Z,21.91
2019-05-26T05:57:26.597Z,21.84
2019-05-26T05:59:58.382Z,22.01
2019-05-26T06:02:30.249Z,22.16
2019-05-26T06:05:02.038Z,22.27
2019-05-26T06:07:33.929Z,22.22
2019-05-26T06:10:10.350Z,22.40
2019-05-26T06:12:41.867Z,22.84
2019-05-26T06:15:15.902Z,23.10
2019-05-26T06:17:48.796Z,22.86
2019-05-26T06:20:20.582Z,23.03
2019-05-26T06:22:53.627Z,22.84
2019-05-26T06:25:25.058Z,22.79
2019-05-26T06:27:56.888Z,22.68
2019-05-26T06:30:28.702Z,22.70
2019-05-26T06:33:00.154Z,22.53
2019-05-26T06:35:32.766Z,22.51
2019-05-26T06:38:04.653Z,22.97
2019-05-26T06:40:36.423Z,23.00
2019-05-26T06:43:08.211Z,22.72
2019-05-26T06:45:39.752Z,22.60
2019-05-26T06:48:11.750Z,22.38
2019-05-26T06:50:43.104Z,22.47
2019-05-26T06:53:14.572Z,22.82
2019-05-26T06:55:50.746Z,22.51
2019-05-26T06:58:24.584Z,22.46
2019-05-26T07:00:56.447Z,22.80
2019-05-26T07:03:28.335Z,22.92
2019-05-26T07:06:00.126Z,23.07
2019-05-26T07:08:31.897Z,23.26
2019-05-26T07:11:03.674Z,23.34
2019-05-26T07:13:35.453Z,23.26
2019-05-26T07:16:07.123Z,22.70
2019-05-26T07:18:38.898Z,22.63
2019-05-26T07:21:10.667Z,22.27
2019-05-26T07:23:43.375Z,22.24
2019-05-26T07:26:15.132Z,22.15
2019-05-26T07:28:46.911Z,22.29
2019-05-26T07:31:18.487Z,22.61
2019-05-26T07:33:50.279Z,22.56
2019-05-26T07:36:22.054Z,22.77
2019-05-26T07:38:53.932Z,23.19
2019-05-26T07:41:25.696Z,23.73
2019-05-26T07:43:57.547Z,22.55
2019-05-26T07:46:29.345Z,22.52
2019-05-26T07:49:01.137Z,23.12
2019-05-26T07:51:32.916Z,22.89
2019-05-26T07:54:04.994Z,23.74
2019-05-26T07:56:36.266Z,23.89
2019-05-26T07:59:08.026Z,23.85
2019-05-26T08:01:39.818Z,23.82
2019-05-26T08:04:11.576Z,23.67
2019-05-26T08:06:42.948Z,24.07
2019-05-26T08:09:14.738Z,23.89
2019-05-26T08:11:46.395Z,24.06
2019-05-26T08:14:18.188Z,24.15
2019-05-26T08:16:49.966Z,24.13
2019-05-26T08:19:21.518Z,24.20
2019-05-26T08:21:54.652Z,24.59
2019-05-26T08:24:27.326Z,24.26
2019-05-26T08:26:59.098Z,24.42
2019-05-26T08:29:30.876Z,24.52
2019-05-26T08:32:02.713Z,24.53
2019-05-26T08:34:34.538Z,24.41
2019-05-26T08:37:06.324Z,25.09
2019-05-26T08:39:38.114Z,25.45
2019-05-26T08:42:09.758Z,24.52
2019-05-26T08:44:41.538Z,23.71
2019-05-26T08:47:13.335Z,23.18
2019-05-26T08:49:45.104Z,23.18
2019-05-26T08:52:16.885Z,23.89
2019-05-26T08:54:48.559Z,24.21
2019-05-26T08:57:20.317Z,24.74
2019-05-26T08:59:52.110Z,24.09
2019-05-26T09:02:23.888Z,23.68
2019-05-26T09:04:55.766Z,23.39
2019-05-26T09:07:27.526Z,23.72
2019-05-26T09:09:59.199Z,23.57
2019-05-26T09:12:30.892Z,23.43
2019-05-26T09:15:02.665Z,23.90
2019-05-26T09:17:34.444Z,24.73
2019-05-26T09:20:11.142Z,25.45
2019-05-26T09:22:41.271Z,25.86
2019-05-26T09:25:14.117Z,26.41
2019-05-26T09:27:45.539Z,26.02
2019-05-26T09:30:18.475Z,24.69
2019-05-26T09:32:50.099Z,23.85
2019-05-26T09:35:21.895Z,23.07
2019-05-26T09:37:53.668Z,21.60
2019-05-26T09:40:25.428Z,21.05
2019-05-26T09:42:57.223Z,20.81
2019-05-26T09:45:28.981Z,20.93
2019-05-26T09:48:00.675Z,21.11
2019-05-26T09:50:32.451Z,21.22
2019-05-26T09:53:04.230Z,21.25
2019-05-26T09:55:36.005Z,21.77
2019-05-26T09:58:07.781Z,22.32
2019-05-26T10:00:39.558Z,23.06
2019-05-26T10:03:11.335Z,22.95
2019-05-26T10:05:43.195Z,22.14
2019-05-26T10:08:14.989Z,21.85
2019-05-26T10:10:47.685Z,21.73
2019-05-26T10:13:31.346Z,21.47
2019-05-26T10:15:52.604Z,21.52
2019-05-26T10:18:24.331Z,22.12
2019-05-26T10:20:56.224Z,23.21
2019-05-26T10:23:27.982Z,23.94
2019-05-26T10:25:59.964Z,23.95
2019-05-26T10:28:31.760Z,24.30
2019-05-26T10:31:03.567Z,24.11
2019-05-26T10:33:35.415Z,22.90
2019-05-26T10:36:07.193Z,22.49
2019-05-26T10:38:38.956Z,22.28
2019-05-26T10:41:10.644Z,22.79
2019-05-26T10:43:47.449Z,23.86
2019-05-26T11:03:11.428Z,22.25
2019-05-26T11:05:49.479Z,22.64
2019-05-26T11:08:31.631Z,23.03
2019-05-26T11:11:11.735Z,23.72
2019-05-26T11:14:02.560Z,24.40
2019-05-26T11:16:29.009Z,24.93
2019-05-26T11:19:09.021Z,25.26
2019-05-26T11:21:53.667Z,25.38
2019-05-26T11:24:33.207Z,24.60
2019-05-26T11:27:12.622Z,24.18
2019-05-26T11:29:49.637Z,24.49
2019-05-26T11:32:27.571Z,24.51
2019-05-26T11:35:08.261Z,24.07
2019-05-26T11:37:47.921Z,23.77
2019-05-26T11:40:21.319Z,24.23
2019-05-26T11:42:53.100Z,24.38
2019-05-26T11:45:24.891Z,24.09
2019-05-26T11:47:56.667Z,23.55
2019-05-26T11:50:28.443Z,23.67
2019-05-26T11:53:00.219Z,23.70
2019-05-26T11:55:31.998Z,23.87
2019-05-26T11:58:03.772Z,23.31
2019-05-26T12:00:35.554Z,23.05
2019-05-26T12:03:07.103Z,22.76
2019-05-26T12:05:38.879Z,22.95
2019-05-26T12:08:17.375Z,23.13
2019-05-26T12:10:52.582Z,23.72
2019-05-26T12:13:30.319Z,23.44
2019-05-26T12:16:08.231Z,23.31
2019-05-26T12:18:53.940Z,23.48
2019-05-26T12:21:27.791Z,23.26
2019-05-26T12:23:59.587Z,23.21
2019-05-26T12:26:31.243Z,23.19
2019-05-26T12:29:04.315Z,23.11
2019-05-26T12:31:35.841Z,23.26
2019-05-26T12:34:07.707Z,23.86
2019-05-26T12:36:39.688Z,23.99
2019-05-26T12:39:11.474Z,24.21
2019-05-26T12:41:43.238Z,23.84
2019-05-26T12:44:15.028Z,23.63
2019-05-26T12:46:46.908Z,23.84
2019-05-26T12:49:18.683Z,24.11
2019-05-26T12:51:50.405Z,24.32
2019-05-26T12:54:22.114Z,24.75
2019-05-26T12:56:53.914Z,24.55
2019-05-26T12:59:25.570Z,24.10
2019-05-26T13:01:57.773Z,23.98
2019-05-26T13:04:29.139Z,23.75
2019-05-26T13:07:00.918Z,23.71
2019-05-26T13:09:32.692Z,23.41
2019-05-26T13:12:05.174Z,23.04
2019-05-26T13:14:36.551Z,22.80
2019-05-26T13:17:08.530Z,22.57
2019-05-26T13:19:40.308Z,22.43
2019-05-26T13:22:12.067Z,22.33
2019-05-26T13:24:43.860Z,22.31
2019-05-26T13:27:15.635Z,22.54
2019-05-26T13:29:48.944Z,23.18
2019-05-26T13:32:20.829Z,23.62
2019-05-26T13:34:52.399Z,24.14
2019-05-26T13:37:24.219Z,24.27
2019-05-26T13:39:55.833Z,24.48
2019-05-26T13:42:27.608Z,25.17
2019-05-26T13:44:59.504Z,25.01
2019-05-26T13:47:31.264Z,25.08
2019-05-26T13:50:03.060Z,25.54
2019-05-26T13:52:34.836Z,25.85
2019-05-26T13:55:10.370Z,25.95
2019-05-26T13:57:41.869Z,25.51
2019-05-26T14:00:15.708Z,25.28
2019-05-26T14:02:47.447Z,25.07
2019-05-26T14:05:20.450Z,24.34
2019-05-26T14:07:51.922Z,23.87
2019-05-26T14:10:32.832Z,23.61
2019-05-26T14:13:05.693Z,23.33
2019-05-26T14:15:39.203Z,22.93
2019-05-26T14:18:10.806Z,22.41
2019-05-26T14:20:42.685Z,21.97
2019-05-26T14:23:14.447Z,21.41
2019-05-26T14:25:46.240Z,21.32
2019-05-26T14:28:18.002Z,21.23
2019-05-26T14:30:50.597Z,20.89
2019-05-26T14:33:22.389Z,20.99
2019-05-26T14:35:54.164Z,20.77
2019-05-26T14:38:40.537Z,20.57
2019-05-26T14:40:59.129Z,20.34
2019-05-26T14:43:30.929Z,20.33
2019-05-26T14:46:02.610Z,20.41
2019-05-26T14:48:34.257Z,21.32
2019-05-26T14:51:06.033Z,22.70
2019-05-26T14:53:37.809Z,22.13
2019-05-26T14:56:09.603Z,21.86
2019-05-26T14:58:41.363Z,21.74
2019-05-26T15:01:13.154Z,22.11
2019-05-26T15:03:44.935Z,23.21
2019-05-26T15:06:16.710Z,22.65
2019-05-26T15:08:48.588Z,22.53
2019-05-26T15:11:20.348Z,24.39
2019-05-26T15:13:52.039Z,26.70
2019-05-26T15:16:23.697Z,27.77
2019-05-26T15:18:55.491Z,29.06
2019-05-26T15:21:27.249Z,29.92
2019-05-26T15:23:58.944Z,29.90
2019-05-26T15:26:30.720Z,29.48
2019-05-26T15:29:02.495Z,27.70
2019-05-26T15:31:34.376Z,25.27
2019-05-26T15:34:06.255Z,23.45
2019-05-26T15:36:38.047Z,22.91
2019-05-26T15:39:09.815Z,23.39
2019-05-26T15:41:41.586Z,23.63
2019-05-26T15:44:13.362Z,23.52
2019-05-26T15:46:46.684Z,23.77
2019-05-26T15:49:18.650Z,25.56
2019-05-26T15:52:14.233Z,27.05
2019-05-26T15:54:48.288Z,27.58
2019-05-26T15:57:19.942Z,27.52
2019-05-26T15:59:54.502Z,27.36
2019-05-26T16:02:25.048Z,27.60
2019-05-26T16:04:58.923Z,26.60
2019-05-26T16:07:30.329Z,26.79
2019-05-26T16:10:03.200Z,26.28
2019-05-26T16:12:57.961Z,26.33
2019-05-26T16:15:32.981Z,26.08
2019-05-26T16:18:04.983Z,25.42
2019-05-26T16:20:36.413Z,23.96
2019-05-26T16:23:09.087Z,23.24
2019-05-26T16:25:40.798Z,22.67
2019-05-26T16:28:12.473Z,22.24
2019-05-26T16:30:44.251Z,22.05
2019-05-26T16:33:16.930Z,21.96
2019-05-26T16:35:48.687Z,21.85
2019-05-26T16:38:20.481Z,21.73
2019-05-26T16:40:52.278Z,21.58
2019-05-26T16:43:23.949Z,21.48
2019-05-26T16:45:56.669Z,21.36
2019-05-26T16:48:28.116Z,21.19
2019-05-26T16:50:59.999Z,21.15
2019-05-26T16:53:31.773Z,21.06
2019-05-26T16:56:03.755Z,20.96
2019-05-26T16:58:35.532Z,20.85
2019-05-26T17:01:07.332Z,20.84
2019-05-26T17:03:38.965Z,20.79
2019-05-26T17:06:10.741Z,20.74
2019-05-26T17:08:42.535Z,20.72
2019-05-26T17:11:14.296Z,20.64
2019-05-26T17:13:46.091Z,20.52
2019-05-26T17:16:18.055Z,20.42
2019-05-26T17:18:49.836Z,20.34
2019-05-26T17:21:21.623Z,20.28
2019-05-26T17:23:53.380Z,20.15
2019-05-26T17:26:25.383Z,20.09
2019-05-26T17:28:57.139Z,20.06
2019-05-26T17:31:29.017Z,20.15
2019-05-26T17:34:01.737Z,20.14
2019-05-26T17:36:33.512Z,20.04
2019-05-26T17:39:08.154Z,19.97
2019-05-26T17:41:39.833Z,20.00
2019-05-26T17:44:11.602Z,19.87
2019-05-26T17:46:43.376Z,19.86
2019-05-26T17:49:15.034Z,19.82
2019-05-26T17:51:46.833Z,19.69
2019-05-26T17:54:18.586Z,19.63
2019-05-26T17:56:50.484Z,19.61
2019-05-26T17:59:22.266Z,19.58
2019-05-26T18:01:53.936Z,19.51
2019-05-26T18:04:25.694Z,19.48
2019-05-26T18:06:57.471Z,19.39
2019-05-26T18:09:43.263Z,19.35
2019-05-26T18:12:02.780Z,19.28
2019-05-26T18:14:34.658Z,19.25
2019-05-26T18:17:06.743Z,19.27
2019-05-26T18:19:38.525Z,19.22
2019-05-26T18:22:10.294Z,19.17
2019-05-26T18:24:56.671Z,19.14
2019-05-26T18:27:20.497Z,19.06
2019-05-26T18:29:52.273Z,18.99
2019-05-26T18:32:24.253Z,18.97
2019-05-26T18:34:56.950Z,18.94
2019-05-26T18:37:28.421Z,18.92
2019-05-26T18:39:59.891Z,18.92
2019-05-26T18:42:31.567Z,18.88
2019-05-26T18:45:04.772Z,18.79
2019-05-26T18:47:36.533Z,18.72
2019-05-26T18:50:08.960Z,18.67
2019-05-26T18:52:40.921Z,18.62
2019-05-26T18:55:12.888Z,18.68
2019-05-26T18:57:44.668Z,18.65
2019-05-26T19:00:18.373Z,18.52
2019-05-26T19:02:49.953Z,18.41
2019-05-26T19:05:32.806Z,18.31
2019-05-26T19:07:56.682Z,18.22
2019-05-26T19:10:28.876Z,18.10
2019-05-26T19:13:01.066Z,18.01
2019-05-26T19:15:32.843Z,17.93
2019-05-26T19:18:19.327Z,17.86
2019-05-26T19:20:40.982Z,17.76
2019-05-26T19:23:12.785Z,17.70
2019-05-26T19:25:44.655Z,17.61
2019-05-26T19:28:16.655Z,17.55
2019-05-26T19:30:48.516Z,17.48
2019-05-26T19:33:22.131Z,17.37
2019-05-26T19:35:55.137Z,17.32
2019-05-26T19:38:26.815Z,17.28
2019-05-26T19:40:58.687Z,17.33
2019-05-26T19:43:30.552Z,17.34
2019-05-26T19:46:03.532Z,17.24
2019-05-26T19:48:37.140Z,17.18
2019-05-26T19:51:08.454Z,17.19
2019-05-26T19:53:40.233Z,17.18
2019-05-26T19:56:12.008Z,17.18
2019-05-26T19:58:43.768Z,17.15
2019-05-26T20:01:15.564Z,17.08
2019-05-26T20:03:47.565Z,17.03
2019-05-26T20:06:19.222Z,16.98
2019-05-26T20:08:51.114Z,16.93
2019-05-26T20:11:22.999Z,16.85
2019-05-26T20:13:54.854Z,16.78
2019-05-26T20:16:30.392Z,16.73
2019-05-26T20:19:00.146Z,16.67
2019-05-26T20:21:31.922Z,16.63
2019-05-26T20:24:04.634Z,16.56
2019-05-26T20:26:36.090Z,16.51
2019-05-26T20:29:07.849Z,16.52
2019-05-26T20:31:39.650Z,16.47
2019-05-26T20:34:11.605Z,16.41
2019-05-26T20:36:44.322Z,16.38
2019-05-26T20:39:16.758Z,16.35
2019-05-26T20:41:48.487Z,16.34
2019-05-26T20:44:20.369Z,16.31
2019-05-26T20:46:52.144Z,16.29
2019-05-26T20:49:23.906Z,16.27
2019-05-26T20:51:55.587Z,16.26
2019-05-26T20:54:27.473Z,16.21
2019-05-26T20:57:00.833Z,16.19
2019-05-26T20:59:32.546Z,16.15
2019-05-26T21:02:04.336Z,16.12
2019-05-26T21:04:36.113Z,16.09
2019-05-26T21:07:07.977Z,16.06
2019-05-26T21:09:39.870Z,16.04
2019-05-26T21:12:11.646Z,16.03
2019-05-26T21:14:43.423Z,15.88
2019-05-26T21:17:15.201Z,15.77
2019-05-26T21:19:47.079Z,15.73
2019-05-26T21:22:18.758Z,15.77
2019-05-26T21:24:50.690Z,15.74
2019-05-26T21:27:22.407Z,15.68
2019-05-26T21:29:54.190Z,15.60
2019-05-26T21:32:25.859Z,15.58
2019-05-26T21:34:57.515Z,15.51
2019-05-26T21:37:30.434Z,15.54
2019-05-26T21:40:02.198Z,15.50
2019-05-26T21:42:33.987Z,15.45
2019-05-26T21:45:08.362Z,15.43
2019-05-26T21:47:39.575Z,15.44
2019-05-26T21:50:12.494Z,15.41
2019-05-26T21:52:44.267Z,15.36
2019-05-26T21:55:16.451Z,15.34
2019-05-26T21:57:47.924Z,15.29
2019-05-26T22:00:22.979Z,15.29
2019-05-26T22:02:54.540Z,15.43
2019-05-26T22:05:26.318Z,15.44
2019-05-26T22:07:58.199Z,15.42
2019-05-26T22:10:30.079Z,15.38
2019-05-26T22:13:01.857Z,15.38
2019-05-26T22:15:33.716Z,15.43
2019-05-26T22:18:05.595Z,15.46
2019-05-26T22:20:37.491Z,15.40
2019-05-26T22:23:09.370Z,15.48
2019-05-26T22:25:41.151Z,15.49
2019-05-26T22:28:13.024Z,15.41
2019-05-26T22:30:44.804Z,15.41
2019-05-26T22:33:16.662Z,15.32
2019-05-26T22:35:48.455Z,15.26
2019-05-26T22:38:21.238Z,15.24
2019-05-26T22:40:53.034Z,15.16
2019-05-26T22:43:24.810Z,15.09
2019-05-26T22:45:56.586Z,15.06
2019-05-26T22:48:28.446Z,15.02
2019-05-26T22:51:00.240Z,15.04
2019-05-26T22:53:31.999Z,14.94
2019-05-26T22:56:03.886Z,14.96
2019-05-26T22:58:35.757Z,14.88
2019-05-26T23:01:07.653Z,14.86
2019-05-26T23:03:39.430Z,14.75
2019-05-26T23:06:11.191Z,14.79
2019-05-26T23:08:42.868Z,14.78
2019-05-26T23:11:14.664Z,14.78
2019-05-26T23:13:46.437Z,14.86
2019-05-26T23:16:18.251Z,14.87
2019-05-26T23:18:50.193Z,14.81
2019-05-26T23:21:22.060Z,14.83
2019-05-26T23:23:53.832Z,14.85
2019-05-26T23:26:25.606Z,14.88
2019-05-26T23:28:57.402Z,14.89
2019-05-26T23:31:29.266Z,14.92
2019-05-26T23:34:01.056Z,14.94
2019-05-26T23:36:32.935Z,14.94
2019-05-26T23:39:06.957Z,14.96
2019-05-26T23:41:38.432Z,15.10
2019-05-26T23:44:10.297Z,15.10
2019-05-26T23:46:42.189Z,15.44
2019-05-26T23:49:13.967Z,16.19
2019-05-26T23:51:45.742Z,16.45
2019-05-26T23:54:17.416Z,16.76
2019-05-26T23:56:49.190Z,16.73
2019-05-26T23:59:20.955Z,17.26
